Valpo, Indiana
Current Conditions -  °F | °C
As of 10:56 PM on Friday 19 Dec 2014 (Local Time) from KVPZ Reporting Station
Overcast Overcast  
Wind Chill: 25°   Ceiling: 2600
Heat Index: 30°   Visibility: 10mi
Dew Point: 22°   Wind: 5mph
Humidity: 72%   Direction: 230°SW
Pressure: 30.26"   Gusts: NA
Location:  41.4608°N, 87.0555°W
Report Text: KVPZ 200456Z AUTO 23004KT 10SM OVC026 M01/M06 A3026 RMK AO2 SLP257 T10111056 TSNO
Loading
Personal Weather Stations






























Interactive Weather Map New forecast layout! Learn more

10-Day Weather Forecast

Advertisements
Track Severe Weather on mobile